LTCG Airport Information

Runway Information
Runway 11 Length 8661 ft width 148 ft
Elevation 104 ft Threshold 0 ft Heading 112
Runway 29 Length 8661 ft Width 148 ft
Elevation 95 ft Threshold 0 ft Heading 292
Airport Frequencies
Type APP Name APP Frequency 120.1 MHZ
Type GND Name GND Frequency 121.9 MHZ
Type TWR Name TWR Frequency 120.1 MHZ
Airport Navaids
Type NDB Name Trabzon Frequency 392 KHZ
Type VOR-DME Name Trabzon Frequency 114900 KHZ
Type NDB Name Trabzon Frequency 371 KHZ
Airport Weather Information & NOTAM
ADDS - METARS form results

(0230 UTC 05 December 2021)
Data provider http://aviationweather.gov/metar/data/
 
METAR text: LTCG 050220Z 21016KT 9999 BKN100 19/01 Q1011 NOSIG RMK RWY29 21014KT
Conditions at: LTCG (TRABZON , TR) observed 0220 UTC 05 December 2021
Temperature: 19.0°C (66°F)
Dewpoint: 1.0°C (34°F) [RH = 30%]
Pressure (altimeter): 29.85 inches Hg (1011.0 mb)
Winds: from the SSW (210 degrees) at 18 MPH (16 knots; 8.2 m/s)
Visibility: 6 or more miles (10+ km)
Ceiling: 10000 feet AGL
Clouds: broken clouds at 10000 feet AGL
Weather: no significant weather observed at this time

METAR text: LTCG 050150Z 22014KT 9999 BKN100 19/01 Q1011 NOSIG RMK RWY29 22011KT
Conditions at: LTCG (TRABZON , TR) observed 0150 UTC 05 December 2021
Temperature: 19.0°C (66°F)
Dewpoint: 1.0°C (34°F) [RH = 30%]
Pressure (altimeter): 29.85 inches Hg (1011.0 mb)
Winds: from the SW (220 degrees) at 16 MPH (14 knots; 7.2 m/s)
Visibility: 6 or more miles (10+ km)
Ceiling: 10000 feet AGL
Clouds: broken clouds at 10000 feet AGL
Weather: no significant weather observed at this time

Forecast for: LTCG (TRABZON , TR)
Text: TAF LTCG 042240Z 0500/0524 20012KT 9999 BKN100
Forecast period: 0000 to 0300 UTC 05 December 2021
Forecast type: FROM: standard forecast or significant change
Winds: from the SSW (200 degrees) at 14 MPH (12 knots; 6.2 m/s)
Visibility: 6 or more miles (10+ km)
Ceiling: 10000 feet AGL
Clouds: broken clouds at 10000 feet AGL
Weather: no significant weather forecast for this period
Text: BECMG 0503/0507 VRB02KT
Forecast period: 0300 UTC 05 December 2021 to 0000 UTC 06 December 2021
Forecast type: BECOMING: Conditions expected to become as follows by 0700 UTC 05 December 2021
Winds: variable direction winds at 2 MPH (2 knots; 1.0 m/s)
Visibility: 6 or more miles (10+ km)
Ceiling: 10000 feet AGL
Clouds: broken clouds at 10000 feet AGL
Weather: no significant weather forecast for this period